Time;durP1;ratioP1;P1;durP2;ratioP2;P2;SDS_P1;SDS_P2;PMS_P1;PMS_P2;Temp;Humidity;BMP_temperature;BMP_pressure;BME280_temperature;BME280_humidity;BME280_pressure;Samples;Min_cycle;Max_cycle;Signal;HPM_P1;HPM_P2
2023/06/22 00:00:46;;;;;;;7.57;4.63;;;;;;;16.30;100.00;99901.69;7380476;19;20836;-35
2023/06/22 00:03:16;;;;;;;6.60;5.00;;;;;;;16.17;100.00;99903.38;7404962;19;20399;-36
2023/06/22 00:05:46;;;;;;;15.50;9.00;;;;;;;16.06;100.00;99894.66;7378947;19;20458;-36
2023/06/22 00:08:16;;;;;;;7.30;4.67;;;;;;;16.04;100.00;99892.03;7403155;19;20451;-36
2023/06/22 00:10:49;;;;;;;6.77;4.47;;;;;;;16.18;100.00;99865.22;7379379;19;20461;-36
2023/06/22 00:13:19;;;;;;;10.30;5.10;;;;;;;16.02;100.00;99862.53;7404581;19;20402;-36
2023/06/22 00:15:48;;;;;;;8.80;5.30;;;;;;;15.90;100.00;99839.88;7380126;19;20443;-36
2023/06/22 00:18:18;;;;;;;8.33;4.57;;;;;;;16.06;100.00;99739.41;7403970;19;20978;-36
2023/06/22 00:20:48;;;;;;;7.10;4.70;;;;;;;16.06;100.00;99697.78;7380522;19;20447;-36
2023/06/22 00:23:17;;;;;;;7.60;4.60;;;;;;;16.14;100.00;99663.09;7402497;19;20527;-39
2023/06/22 00:25:49;;;;;;;8.60;4.97;;;;;;;16.23;100.00;99644.91;7380299;19;20441;-36
2023/06/22 00:28:19;;;;;;;10.90;5.37;;;;;;;16.27;100.00;99633.66;7403989;19;20471;-35
2023/06/22 00:30:49;;;;;;;9.67;5.33;;;;;;;16.43;100.00;99628.44;7381050;19;20439;-36
2023/06/22 00:33:19;;;;;;;9.20;5.17;;;;;;;16.19;100.00;99645.75;7402510;19;20391;-36
2023/06/22 00:35:48;;;;;;;10.40;5.50;;;;;;;16.01;100.00;99673.47;7379674;19;20829;-36
2023/06/22 00:38:18;;;;;;;11.50;5.30;;;;;;;16.18;100.00;99655.31;7403196;19;20452;-37
2023/06/22 00:40:50;;;;;;;9.60;5.43;;;;;;;16.36;100.00;99627.53;7380693;19;20434;-36
2023/06/22 00:43:19;;;;;;;10.47;5.77;;;;;;;16.26;100.00;99644.06;7404765;19;20396;-35
2023/06/22 00:45:49;;;;;;;7.73;5.13;;;;;;;16.08;100.00;99660.47;7377098;19;20454;-36
2023/06/22 00:48:19;;;;;;;9.03;5.20;;;;;;;16.10;100.00;99650.97;7402828;19;20556;-37
2023/06/22 00:50:51;;;;;;;8.63;5.70;;;;;;;16.20;100.00;99626.69;7379042;19;21010;-36
2023/06/22 00:53:21;;;;;;;8.70;5.00;;;;;;;16.18;100.00;99633.63;7402222;19;20423;-36
2023/06/22 00:55:53;;;;;;;11.20;5.80;;;;;;;16.08;100.00;99637.06;7380224;19;20713;-36
2023/06/22 00:58:25;;;;;;;66.93;35.70;;;;;;;16.21;100.00;99623.25;7403517;19;20451;-36
2023/06/22 01:00:54;;;;;;;24.00;14.03;;;;;;;16.28;100.00;99613.69;7382389;19;21030;-36
2023/06/22 01:03:24;;;;;;;51.00;28.57;;;;;;;16.37;100.00;99602.41;7401681;19;20407;-43
2023/06/22 01:05:55;;;;;;;20.30;12.13;;;;;;;16.25;100.00;99611.94;7380578;19;20991;-36
2023/06/22 01:08:30;;;;;;;18.27;11.90;;;;;;;16.18;100.00;99605.00;7401084;19;20450;-35
2023/06/22 01:11:06;;;;;;;18.90;11.37;;;;;;;16.23;100.00;99598.06;7377157;19;20529;-35
2023/06/22 01:13:42;;;;;;;41.83;23.63;;;;;;;16.33;100.00;99592.00;7375612;19;20466;-35
2023/06/22 01:16:14;;;;;;;17.57;9.53;;;;;;;16.25;100.00;99592.88;7398260;19;20746;-35
2023/06/22 01:18:45;;;;;;;14.43;8.40;;;;;;;16.26;100.00;99590.25;7375214;19;20471;-35
2023/06/22 01:21:19;;;;;;;11.70;7.60;;;;;;;16.20;100.00;99590.25;7398441;19;20424;-35
2023/06/22 01:24:03;;;;;;;12.43;8.10;;;;;;;16.21;100.00;99584.19;7374832;19;20494;-35
2023/06/22 01:26:41;;;;;;;12.07;6.30;;;;;;;16.25;100.00;99570.31;7397997;19;20420;-35
2023/06/22 01:29:14;;;;;;;13.37;6.83;;;;;;;16.20;100.00;99570.31;7374413;19;20438;-35
2023/06/22 01:31:45;;;;;;;13.53;5.90;;;;;;;16.30;100.00;99567.69;7399247;19;20412;-35
2023/06/22 01:34:15;;;;;;;12.30;6.17;;;;;;;16.17;100.00;99569.44;7373312;19;20449;-36
2023/06/22 01:36:45;;;;;;;7.60;5.30;;;;;;;16.16;100.00;99567.72;7398402;19;20427;-35
2023/06/22 01:39:15;;;;;;;7.93;5.80;;;;;;;16.17;100.00;99569.44;7373286;19;20435;-35
2023/06/22 01:41:45;;;;;;;12.07;6.43;;;;;;;16.14;100.00;99564.22;7400875;19;20422;-35
2023/06/22 01:44:18;;;;;;;10.57;6.70;;;;;;;15.88;100.00;99576.34;7373528;19;20440;-36
2023/06/22 01:46:48;;;;;;;9.20;6.00;;;;;;;15.93;100.00;99569.44;7398437;19;20414;-36
2023/06/22 01:49:18;;;;;;;9.73;5.97;;;;;;;15.99;100.00;99555.56;7373949;19;21061;-35
2023/06/22 01:51:47;;;;;;;8.33;5.90;;;;;;;16.01;100.00;99552.97;7400133;19;20813;-36
2023/06/22 01:54:17;;;;;;;11.83;6.07;;;;;;;15.71;100.00;99570.25;7372753;19;20431;-35
2023/06/22 01:56:46;;;;;;;12.73;7.60;;;;;;;15.57;100.00;99573.69;7398088;19;20407;-36
2023/06/22 01:59:24;;;;;;;11.90;7.70;;;;;;;15.60;100.00;99552.03;7373631;19;20438;-35
2023/06/22 02:02:00;;;;;;;8.90;6.10;;;;;;;15.79;100.00;99530.38;7399003;19;20403;-36
2023/06/22 02:04:35;;;;;;;12.20;6.87;;;;;;;15.98;100.00;99501.81;7373279;19;20442;-36
2023/06/22 02:07:08;;;;;;;11.70;8.00;;;;;;;16.09;100.00;99498.34;7397546;19;20391;-36
2023/06/22 02:09:38;;;;;;;9.97;7.10;;;;;;;16.10;100.00;99506.13;7374727;19;20461;-36
2023/06/22 02:12:09;;;;;;;11.60;6.80;;;;;;;16.16;100.00;99520.88;7397637;19;20754;-37
2023/06/22 02:14:42;;;;;;;11.97;7.37;;;;;;;15.97;100.00;99533.91;7371129;19;20459;-36
2023/06/22 02:17:12;;;;;;;13.80;6.67;;;;;;;15.86;100.00;99548.59;7398373;19;20406;-36
2023/06/22 02:19:43;;;;;;;11.77;7.50;;;;;;;15.91;100.00;99546.88;7375468;19;20422;-36
2023/06/22 02:22:13;;;;;;;11.40;6.53;;;;;;;15.91;100.00;99549.47;7399117;19;20947;-35
2023/06/22 02:24:43;;;;;;;11.10;6.53;;;;;;;15.98;100.00;99545.16;7373612;19;20431;-36
2023/06/22 02:27:12;;;;;;;10.40;6.70;;;;;;;15.84;100.00;99551.19;7397702;19;20467;-36
2023/06/22 02:29:45;;;;;;;9.53;6.87;;;;;;;15.77;100.00;99550.34;7374788;19;20494;-35
2023/06/22 02:32:17;;;;;;;10.70;6.07;;;;;;;15.55;100.00;99564.16;7399234;19;20407;-36
2023/06/22 02:34:47;;;;;;;10.90;6.97;;;;;;;15.42;100.00;99540.72;7372226;19;20439;-35
2023/06/22 02:37:17;;;;;;;11.33;6.80;;;;;;;15.43;100.00;99502.63;7397201;19;20925;-36
2023/06/22 02:39:47;;;;;;;9.70;6.33;;;;;;;15.52;100.00;99459.31;7373402;19;20471;-35
2023/06/22 02:42:20;;;;;;;10.30;6.53;;;;;;;15.37;100.00;99439.38;7397325;19;20779;-36
2023/06/22 02:44:52;;;;;;;12.20;6.90;;;;;;;15.24;100.00;99430.69;7372756;19;20427;-35
2023/06/22 02:47:22;;;;;;;10.77;7.33;;;;;;;15.31;100.00;99435.88;7396876;19;20447;-36
2023/06/22 02:49:51;;;;;;;10.07;5.70;;;;;;;15.38;100.00;99412.50;7372307;19;20539;-35
2023/06/22 02:52:21;;;;;;;11.33;7.10;;;;;;;15.43;100.00;99391.72;7395536;19;20404;-35
2023/06/22 02:54:51;;;;;;;10.07;7.27;;;;;;;15.34;100.00;99376.16;7370669;19;20451;-35
2023/06/22 02:57:20;;;;;;;13.07;7.13;;;;;;;15.11;100.00;99371.78;7395534;19;20529;-35
2023/06/22 02:59:53;;;;;;;13.73;6.90;;;;;;;15.09;100.00;99352.75;7372196;19;20595;-36
2023/06/22 03:02:22;;;;;;;13.10;7.40;;;;;;;15.15;100.00;99333.69;7396689;19;20415;-36
2023/06/22 03:04:53;;;;;;;10.93;7.13;;;;;;;15.28;100.00;99313.78;7371011;19;20427;-35
2023/06/22 03:07:23;;;;;;;10.70;7.90;;;;;;;15.32;100.00;99284.31;7397356;19;20498;-35
2023/06/22 03:09:52;;;;;;;13.10;7.10;;;;;;;15.15;100.00;99282.63;7373227;19;20447;-35
2023/06/22 03:12:22;;;;;;;13.33;7.80;;;;;;;15.21;100.00;99274.81;7397029;19;20415;-36
2023/06/22 03:14:54;;;;;;;51.63;31.03;;;;;;;15.44;100.00;99258.31;7370974;19;20548;-36
2023/06/22 03:17:23;;;;;;;23.80;14.00;;;;;;;15.82;100.00;99229.59;7395636;19;20419;-35
2023/06/22 03:19:54;;;;;;;20.47;12.60;;;;;;;15.62;100.00;99247.03;7372324;19;20583;-35
2023/06/22 03:22:23;;;;;;;47.63;30.80;;;;;;;15.86;100.00;99246.94;7395180;19;20483;-35
2023/06/22 03:24:53;;;;;;;31.27;19.53;;;;;;;15.85;100.00;99258.22;7373380;19;20558;-35
2023/06/22 03:27:22;;;;;;;27.70;17.83;;;;;;;15.86;100.00;99283.34;7401835;19;20486;-35
2023/06/22 03:29:55;;;;;;;17.07;11.07;;;;;;;15.54;100.00;99318.97;7379666;19;20435;-35
2023/06/22 03:32:25;;;;;;;15.80;11.20;;;;;;;15.63;100.00;99338.84;7403773;19;20959;-36
2023/06/22 03:34:58;;;;;;;36.93;20.63;;;;;;;15.68;100.00;99352.72;7378012;19;20422;-35
2023/06/22 03:37:28;;;;;;;30.17;16.67;;;;;;;16.01;100.00;99335.31;7402101;19;20431;-35
2023/06/22 03:39:58;;;;;;;20.97;12.03;;;;;;;16.02;100.00;99351.81;7379524;19;20502;-35
2023/06/22 03:42:28;;;;;;;20.00;11.20;;;;;;;16.01;100.00;99371.75;7404026;19;20417;-35
2023/06/22 03:45:00;;;;;;;18.40;10.93;;;;;;;16.12;100.00;99389.06;7378182;19;20460;-35
2023/06/22 03:47:30;;;;;;;16.17;10.53;;;;;;;16.21;100.00;99407.25;7401275;19;20427;-35
2023/06/22 03:50:00;;;;;;;15.33;9.17;;;;;;;16.25;100.00;99421.13;7378177;19;20418;-36
2023/06/22 03:52:29;;;;;;;13.23;8.20;;;;;;;15.98;100.00;99460.19;7401805;19;20399;-36
2023/06/22 03:54:59;;;;;;;26.83;14.93;;;;;;;15.74;100.00;99487.91;7377215;19;20423;-35
2023/06/22 03:57:28;;;;;;;36.00;17.47;;;;;;;15.84;100.00;99488.78;7401106;19;20435;-36
2023/06/22 04:00:02;;;;;;;21.40;13.27;;;;;;;15.90;100.00;99487.94;7377213;19;20445;-36
2023/06/22 04:02:32;;;;;;;22.90;14.53;;;;;;;15.91;100.00;99481.84;7403983;19;20414;-36
2023/06/22 04:05:01;;;;;;;75.20;38.40;;;;;;;15.94;100.00;99489.66;7377414;19;21017;-36
2023/06/22 04:07:33;;;;;;;26.03;13.70;;;;;;;15.97;100.00;99479.28;7403466;19;20435;-36
2023/06/22 04:10:03;;;;;;;17.57;10.30;;;;;;;15.98;100.00;99488.81;7376260;19;20439;-35
2023/06/22 04:12:32;;;;;;;16.43;10.33;;;;;;;16.04;100.00;99483.59;7401708;19;20411;-36
2023/06/22 04:15:05;;;;;;;12.90;9.53;;;;;;;15.99;100.00;99490.53;7377926;19;20502;-36
2023/06/22 04:17:34;;;;;;;16.10;8.10;;;;;;;15.95;100.00;99504.44;7402029;19;20807;-34
2023/06/22 04:20:04;;;;;;;12.77;7.70;;;;;;;15.87;100.00;99519.13;7377228;19;21019;-35
2023/06/22 04:22:34;;;;;;;11.20;7.03;;;;;;;15.91;100.00;99526.06;7401412;19;20411;-36
2023/06/22 04:25:03;;;;;;;10.37;7.40;;;;;;;15.91;100.00;99528.66;7377295;19;20455;-34
2023/06/22 04:27:37;;;;;;;16.30;8.10;;;;;;;15.98;100.00;99522.63;7402032;19;20439;-34
2023/06/22 04:30:10;;;;;;;14.07;8.20;;;;;;;16.13;100.00;99515.66;7376729;19;20427;-35
2023/06/22 04:32:40;;;;;;;12.63;6.60;;;;;;;16.21;100.00;99516.56;7401251;19;20407;-34
2023/06/22 04:35:11;;;;;;;12.23;7.50;;;;;;;16.12;100.00;99525.22;7376093;19;20423;-33
2023/06/22 04:37:41;;;;;;;10.97;7.47;;;;;;;16.06;100.00;99541.69;7400021;19;20455;-36
2023/06/22 04:40:14;;;;;;;11.43;7.57;;;;;;;16.12;100.00;99550.38;7376806;19;20511;-33
2023/06/22 04:42:52;;;;;;;12.77;6.70;;;;;;;16.15;100.00;99563.38;7401259;19;20409;-34
2023/06/22 04:45:24;;;;;;;12.00;7.47;;;;;;;16.16;100.00;99572.94;7377169;19;20436;-34
2023/06/22 04:47:53;;;;;;;14.90;7.07;;;;;;;16.33;100.00;99579.00;7403918;19;20454;-34
2023/06/22 04:50:23;;;;;;;13.93;7.40;;;;;;;16.49;100.00;99575.47;7376719;19;20435;-35
2023/06/22 04:52:53;;;;;;;11.23;7.90;;;;;;;16.49;100.00;99597.19;7401526;19;20430;-34
2023/06/22 04:55:23;;;;;;;17.00;8.50;;;;;;;16.47;100.00;99610.19;7377986;19;20425;-36
2023/06/22 04:57:52;;;;;;;12.07;7.53;;;;;;;16.58;100.00;99627.56;7400908;19;20456;-33
2023/06/22 05:00:24;;;;;;;13.73;8.37;;;;;;;16.70;100.00;99634.47;7376530;19;20451;-33
2023/06/22 05:02:56;;;;;;;14.60;7.50;;;;;;;16.65;100.00;99654.44;7400911;19;20440;-34
2023/06/22 05:05:46;;;;;;;18.90;6.50;;;;;;;16.61;100.00;99669.19;7376968;19;20455;-34
2023/06/22 05:08:16;;;;;;;12.63;6.87;;;;;;;16.68;100.00;99683.97;7401022;19;20482;-34
2023/06/22 05:10:46;;;;;;;11.40;5.90;;;;;;;16.81;100.00;99697.00;7377173;19;20484;-34
2023/06/22 05:13:32;;;;;;;12.40;5.37;;;;;;;16.73;100.00;99707.41;7375650;19;20780;-33
2023/06/22 05:16:05;;;;;;;10.30;6.77;;;;;;;16.88;100.00;99709.97;7397591;19;20440;-33
2023/06/22 05:18:36;;;;;;;10.73;5.63;;;;;;;16.93;100.00;99719.53;7375833;19;20436;-33
2023/06/22 05:21:05;;;;;;;11.43;5.97;;;;;;;16.96;100.00;99732.56;7400622;19;20403;-33
2023/06/22 05:23:35;;;;;;;11.87;6.43;;;;;;;17.09;100.00;99739.53;7377767;19;20414;-36
2023/06/22 05:26:05;;;;;;;11.60;6.10;;;;;;;17.03;100.00;99769.94;7398361;19;20471;-33
2023/06/22 05:28:35;;;;;;;12.37;6.00;;;;;;;17.04;100.00;99782.09;7376109;19;20974;-33
2023/06/22 05:31:07;;;;;;;16.23;7.20;;;;;;;17.18;100.00;99788.16;7397465;19;20424;-34
2023/06/22 05:33:37;;;;;;;11.63;6.17;;;;;;;17.15;100.00;99816.84;7375358;19;20407;-34
2023/06/22 05:36:07;;;;;;;10.30;5.50;;;;;;;17.26;100.00;99840.28;7397458;19;20404;-36
2023/06/22 05:38:38;;;;;;;10.47;5.63;;;;;;;17.35;100.00;99855.06;7376078;19;20443;-37
2023/06/22 05:41:07;;;;;;;9.53;5.40;;;;;;;17.34;100.00;99868.97;7397375;19;20412;-35
2023/06/22 05:43:37;;;;;;;17.67;9.50;;;;;;;17.37;100.00;99884.59;7375583;19;20467;-39
2023/06/22 05:46:09;;;;;;;60.77;32.40;;;;;;;17.53;100.00;99886.31;7397720;19;20431;-34
2023/06/22 05:48:39;;;;;;;24.30;14.70;;;;;;;17.52;100.00;99888.94;7375733;19;21062;-35
2023/06/22 05:51:08;;;;;;;15.70;9.83;;;;;;;17.64;100.00;99888.91;7398342;19;20943;-35
2023/06/22 05:53:38;;;;;;;10.00;5.50;;;;;;;17.75;100.00;99901.09;7376167;19;20430;-34
2023/06/22 05:56:08;;;;;;;26.20;16.47;;;;;;;17.79;100.00;99936.75;7398483;19;20453;-36
2023/06/22 05:58:38;;;;;;;8.60;4.80;;;;;;;17.75;100.00;99969.75;7375263;19;20435;-33
2023/06/22 06:01:10;;;;;;;8.33;4.63;;;;;;;17.76;100.00;100009.78;7400087;19;20392;-34
2023/06/22 06:03:41;;;;;;;9.90;3.60;;;;;;;17.86;100.00;100024.56;7375601;19;20403;-34
2023/06/22 06:06:10;;;;;;;9.83;4.40;;;;;;;17.91;100.00;100050.66;7397981;19;20439;-33
2023/06/22 06:08:40;;;;;;;6.80;3.67;;;;;;;17.93;100.00;100073.28;7376636;19;20464;-33
2023/06/22 06:11:10;;;;;;;5.60;3.07;;;;;;;17.97;100.00;100083.69;7396775;19;20853;-34
2023/06/22 06:13:39;;;;;;;9.67;3.57;;;;;;;18.12;100.00;100109.84;7374342;19;20424;-34
2023/06/22 06:16:12;;;;;;;11.53;3.93;;;;;;;18.14;100.00;100131.59;7396303;19;20412;-33
2023/06/22 06:18:41;;;;;;;5.90;3.40;;;;;;;18.17;100.00;100144.66;7375831;19;20561;-35
2023/06/22 06:21:11;;;;;;;8.27;3.60;;;;;;;18.22;100.00;100149.88;7396629;19;20427;-35
2023/06/22 06:23:41;;;;;;;5.87;3.43;;;;;;;18.22;100.00;100155.94;7374547;19;20847;-33
2023/06/22 06:26:11;;;;;;;5.50;3.43;;;;;;;18.41;100.00;100152.50;7396220;19;20407;-34
2023/06/22 06:28:41;;;;;;;8.23;3.87;;;;;;;18.43;100.00;100162.06;7375885;19;20466;-33
2023/06/22 06:31:17;;;;;;;5.37;2.50;;;;;;;18.45;100.00;100172.50;7397110;19;20416;-34
2023/06/22 06:33:46;;;;;;;6.10;3.10;;;;;;;18.45;100.00;100170.75;7369794;19;20504;-36
2023/06/22 06:36:16;;;;;;;8.00;2.63;;;;;;;18.28;100.00;100183.81;7399167;19;20969;-34
2023/06/22 06:38:47;;;;;;;4.43;2.73;;;;;;;18.20;100.00;100178.59;7374176;19;20503;-35
2023/06/22 06:41:17;;;;;;;6.10;2.90;;;;;;;18.23;100.00;100175.09;7397724;19;20412;-33
2023/06/22 06:43:47;;;;;;;6.90;2.70;;;;;;;18.16;100.00;100171.59;7372581;19;20392;-36
2023/06/22 06:46:19;;;;;;;5.50;2.90;;;;;;;18.15;100.00;100166.41;7397024;19;20423;-36
2023/06/22 06:48:49;;;;;;;5.80;2.67;;;;;;;18.17;100.00;100164.66;7373172;19;20415;-41
2023/06/22 06:51:18;;;;;;;6.00;2.83;;;;;;;18.19;100.00;100145.53;7396825;19;20396;-34
2023/06/22 06:53:48;;;;;;;5.10;3.30;;;;;;;18.36;100.00;100142.06;7373759;19;20391;-36
2023/06/22 06:56:18;;;;;;;9.10;3.20;;;;;;;18.44;100.00;100132.47;7398404;19;20475;-36
2023/06/22 06:58:48;;;;;;;5.37;3.03;;;;;;;18.52;100.00;100121.13;7373117;19;20388;-36
2023/06/22 07:01:20;;;;;;;5.90;3.30;;;;;;;18.57;100.00;100108.94;7394969;19;20854;-36
2023/06/22 07:03:51;;;;;;;10.50;5.47;;;;;;;18.72;100.00;100097.59;7372626;19;20387;-37
2023/06/22 07:06:20;;;;;;;7.30;3.27;;;;;;;18.85;100.00;100085.34;7396300;19;20448;-35
2023/06/22 07:08:50;;;;;;;5.07;3.03;;;;;;;18.92;100.00;100060.94;7374092;19;20478;-36
2023/06/22 07:11:19;;;;;;;5.67;3.07;;;;;;;19.00;100.00;100053.94;7397511;19;20467;-35
2023/06/22 07:13:49;;;;;;;7.73;3.10;;;;;;;19.06;100.00;100044.38;7373211;19;21058;-35
2023/06/22 07:16:22;;;;;;;4.80;2.90;;;;;;;19.16;100.00;100030.38;7395865;19;20404;-35
2023/06/22 07:18:52;;;;;;;8.43;2.70;;;;;;;19.16;100.00;100002.50;7372812;19;20436;-35
2023/06/22 07:21:21;;;;;;;4.80;2.67;;;;;;;19.13;100.00;100001.66;7396159;19;20926;-35
2023/06/22 07:23:51;;;;;;;4.93;2.87;;;;;;;19.20;100.00;99987.66;7372627;19;20399;-34
2023/06/22 07:26:21;;;;;;;6.60;3.50;;;;;;;19.49;100.00;99973.50;7396008;19;20404;-35
2023/06/22 07:28:50;;;;;;;4.60;2.90;;;;;;;19.46;100.00;99968.31;7375041;19;20431;-34
2023/06/22 07:31:22;;;;;;;6.73;3.17;;;;;;;19.48;100.00;99956.06;7395946;19;20528;-35
2023/06/22 07:33:52;;;;;;;5.40;3.20;;;;;;;19.62;100.00;99939.38;7371698;19;20433;-35
2023/06/22 07:36:22;;;;;;;5.77;3.00;;;;;;;19.69;100.00;99934.09;7397843;19;20418;-35
2023/06/22 07:38:52;;;;;;;7.30;3.50;;;;;;;19.72;100.00;99927.97;7372136;19;20420;-35
2023/06/22 07:41:22;;;;;;;4.40;2.50;;;;;;;19.78;100.00;99913.94;7394967;19;20396;-35
2023/06/22 07:43:52;;;;;;;7.60;3.60;;;;;;;19.83;100.00;99910.41;7372441;19;20441;-35
2023/06/22 07:46:24;;;;;;;7.30;3.47;;;;;;;19.92;100.00;99908.56;7396329;19;20409;-35
2023/06/22 07:48:54;;;;;;;9.67;3.37;;;;;;;20.08;100.00;99894.47;7371953;19;20411;-34
2023/06/22 07:51:25;;;;;;;7.00;3.40;;;;;;;20.17;100.00;99903.09;7397328;19;20400;-35
2023/06/22 07:53:54;;;;;;;5.80;3.67;;;;;;;20.34;100.00;99906.41;7372610;19;20486;-36
2023/06/22 07:56:24;;;;;;;9.13;3.40;;;;;;;20.42;100.00;99900.19;7394533;19;20774;-35
2023/06/22 07:58:54;;;;;;;9.20;3.83;;;;;;;20.50;100.00;99898.34;7370598;19;20403;-36
2023/06/22 08:01:27;;;;;;;6.23;3.67;;;;;;;20.50;100.00;99929.78;7393124;19;20420;-35
2023/06/22 08:03:56;;;;;;;6.80;3.47;;;;;;;20.60;100.00;99928.78;7369562;19;20471;-35
2023/06/22 08:06:26;;;;;;;10.03;4.20;;;;;;;20.63;100.00;99954.94;7392988;19;20772;-35
2023/06/22 08:08:56;;;;;;;13.70;7.70;;;;;;;20.74;100.00;99974.91;7371420;19;20447;-35
2023/06/22 08:11:26;;;;;;;20.20;11.40;;;;;;;20.80;100.00;99981.84;7396757;19;20417;-36
2023/06/22 08:13:58;;;;;;;46.93;31.60;;;;;;;20.88;100.00;99983.47;7376629;19;20409;-35
2023/06/22 08:16:30;;;;;;;25.73;17.17;;;;;;;20.80;100.00;100003.66;7401365;19;20404;-35
2023/06/22 08:19:00;;;;;;;22.63;13.00;;;;;;;20.98;100.00;99971.09;7376931;19;20500;-35
2023/06/22 08:21:30;;;;;;;23.23;14.67;;;;;;;21.15;100.00;99965.63;7401581;19;20536;-35
2023/06/22 08:23:59;;;;;;;35.67;25.53;;;;;;;21.11;100.00;99986.66;7375634;19;20502;-35
2023/06/22 08:26:29;;;;;;;6.80;3.57;;;;;;;21.06;100.00;99971.00;7403559;19;20415;-36
2023/06/22 08:28:58;;;;;;;18.07;11.70;;;;;;;21.04;100.00;99959.69;7377734;19;20436;-35
2023/06/22 08:31:31;;;;;;;68.00;44.30;;;;;;;21.14;100.00;99971.78;7401337;19;20412;-35
2023/06/22 08:34:01;;;;;;;9.67;5.10;;;;;;;21.04;100.00;99985.91;7377924;19;20451;-37
2023/06/22 08:36:37;;;;;;;10.50;4.90;;;;;;;21.26;100.00;99988.19;7400868;19;20512;-35
2023/06/22 08:39:07;;;;;;;10.30;2.97;;;;;;;21.26;100.00;100017.06;7375267;19;20439;-35
2023/06/22 08:41:36;;;;;;;7.10;3.73;;;;;;;21.44;100.00;100005.44;7400645;19;20413;-35
2023/06/22 08:44:06;;;;;;;68.07;48.63;;;;;;;21.61;100.00;100049.78;7374855;19;20426;-36
2023/06/22 08:46:40;;;;;;;19.70;10.70;;;;;;;21.80;100.00;100063.50;7400538;19;20415;-35
2023/06/22 08:49:09;;;;;;;21.23;13.00;;;;;;;21.88;100.00;100129.03;7377466;19;20427;-36
2023/06/22 08:51:39;;;;;;;10.50;6.40;;;;;;;21.85;100.00;100131.72;7400326;19;20415;-36
2023/06/22 08:54:09;;;;;;;9.30;5.23;;;;;;;21.89;100.00;100122.88;7375348;19;20455;-36
2023/06/22 08:56:39;;;;;;;15.07;5.60;;;;;;;21.89;100.00;100140.41;7399811;19;20836;-36
2023/06/22 08:59:09;;;;;;;4.60;2.60;;;;;;;21.72;100.00;100152.00;7374381;19;21205;-36
2023/06/22 09:01:45;;;;;;;56.07;36.83;;;;;;;21.87;100.00;100103.66;7400918;19;20531;-36
2023/06/22 09:04:15;;;;;;;9.40;4.90;;;;;;;22.13;100.00;100115.50;7376734;19;20431;-36
2023/06/22 09:06:47;;;;;;;22.87;14.80;;;;;;;22.24;100.00;100112.69;7402730;19;20440;-33
2023/06/22 09:09:18;;;;;;;18.50;11.00;;;;;;;22.39;100.00;100032.75;7376042;19;20446;-36
2023/06/22 09:11:47;;;;;;;36.27;23.33;;;;;;;22.47;100.00;100054.50;7403419;19;20438;-35
2023/06/22 09:14:17;;;;;;;9.33;6.30;;;;;;;22.45;100.00;100085.19;7374896;19;20460;-36
2023/06/22 09:16:50;;;;;;;12.50;7.90;;;;;;;22.54;100.00;100083.34;7401090;19;20418;-36
2023/06/22 09:19:19;;;;;;;15.70;9.47;;;;;;;22.58;100.00;100054.31;7375098;19;20498;-35
2023/06/22 09:21:49;;;;;;;5.67;3.60;;;;;;;22.77;100.00;100077.63;7403558;19;20422;-35
2023/06/22 09:24:19;;;;;;;25.67;13.83;;;;;;;22.74;100.00;100175.81;7373506;19;20870;-35
2023/06/22 09:26:48;;;;;;;19.63;11.13;;;;;;;22.77;100.00;100165.22;7400526;19;20483;-36
2023/06/22 09:29:18;;;;;;;6.70;3.20;;;;;;;22.54;100.00;100186.69;7375993;19;20435;-35
2023/06/22 09:31:53;;;;;;;17.83;12.60;;;;;;;22.74;100.00;100146.91;7402319;19;20428;-36
2023/06/22 09:34:23;;;;;;;42.70;29.53;;;;;;;23.03;100.00;100124.41;7374523;19;20474;-36
2023/06/22 09:36:52;;;;;;;9.40;4.03;;;;;;;23.07;100.00;100201.50;7400111;19;20416;-34
2023/06/22 09:39:22;;;;;;;47.07;33.60;;;;;;;23.15;100.00;100209.25;7373960;19;20828;-35
2023/06/22 09:41:51;;;;;;;10.33;5.20;;;;;;;23.31;100.00;100179.16;7400557;19;20407;-35
2023/06/22 09:44:21;;;;;;;25.37;18.57;;;;;;;23.37;100.00;100169.41;7373884;19;20479;-36
2023/06/22 09:46:53;;;;;;;26.63;17.57;;;;;;;23.23;100.00;100217.88;7401711;19;20418;-36
2023/06/22 09:49:22;;;;;;;48.20;34.43;;;;;;;23.28;100.00;100238.84;7373595;19;20446;-36
2023/06/22 09:52:12;;;;;;;63.43;43.53;;;;;;;23.58;100.00;100195.25;7400702;19;20392;-36
2023/06/22 09:54:41;;;;;;;17.70;10.27;;;;;;;23.67;100.00;100217.00;7374587;19;20443;-36
2023/06/22 09:57:11;;;;;;;47.30;34.10;;;;;;;23.68;100.00;100237.19;7397722;19;20407;-36
2023/06/22 09:59:41;;;;;;;19.73;14.73;;;;;;;23.93;100.00;100202.44;7373504;19;20558;-35
2023/06/22 10:02:13;;;;;;;15.13;10.70;;;;;;;23.87;100.00;100300.88;7394479;19;20421;-36
2023/06/22 10:04:43;;;;;;;19.87;13.33;;;;;;;24.16;100.00;100290.63;7373680;19;20439;-36
2023/06/22 10:07:13;;;;;;;7.33;3.93;;;;;;;24.14;100.00;100357.41;7397659;19;20420;-35
2023/06/22 10:09:43;;;;;;;30.57;17.80;;;;;;;24.51;100.00;100312.69;7374699;19;20564;-35
2023/06/22 10:12:12;;;;;;;13.27;7.50;;;;;;;24.55;100.00;100345.97;7398170;19;20958;-36
2023/06/22 10:14:42;;;;;;;43.60;23.47;;;;;;;24.13;100.00;100350.41;7371496;19;20461;-36
2023/06/22 10:17:14;;;;;;;12.47;8.60;;;;;;;23.96;100.00;100315.59;7399300;19;20411;-35
2023/06/22 10:19:44;;;;;;;9.97;7.10;;;;;;;23.95;100.00;100092.63;7373008;19;20447;-35
2023/06/22 10:22:13;;;;;;;7.30;3.90;;;;;;;24.26;100.00;100108.53;7397404;19;20786;-35
2023/06/22 10:24:44;;;;;;;30.00;15.63;;;;;;;24.54;100.00;100133.31;7373046;19;20461;-36
2023/06/22 10:27:14;;;;;;;14.27;7.67;;;;;;;24.72;100.00;100110.00;7397157;19;20413;-36
2023/06/22 10:29:44;;;;;;;10.57;6.30;;;;;;;24.55;100.00;100182.50;7373218;19;20444;-35
2023/06/22 10:32:16;;;;;;;11.30;7.03;;;;;;;24.43;100.00;100210.06;7397774;19;20395;-36
2023/06/22 10:34:45;;;;;;;14.07;7.33;;;;;;;24.73;100.00;100185.56;7361876;19;20857;-35
2023/06/22 10:37:15;;;;;;;11.23;6.10;;;;;;;24.33;100.00;100209.41;7395445;19;20404;-36
2023/06/22 10:39:45;;;;;;;12.63;5.70;;;;;;;24.07;100.00;100176.66;7371967;19;20873;-35
2023/06/22 10:42:14;;;;;;;9.83;4.93;;;;;;;24.43;100.00;100156.47;7396504;19;20967;-35
2023/06/22 10:44:44;;;;;;;12.90;7.23;;;;;;;24.71;100.00;100187.41;7367324;19;20427;-36
2023/06/22 10:47:16;;;;;;;75.17;43.07;;;;;;;24.99;100.00;100197.22;7398561;19;20801;-37
2023/06/22 10:49:46;;;;;;;49.20;27.63;;;;;;;25.05;100.00;100197.06;7369714;19;20935;-36
2023/06/22 10:52:15;;;;;;;12.20;5.40;;;;;;;25.35;100.00;100226.16;7395620;19;20410;-40
2023/06/22 10:54:45;;;;;;;63.10;34.57;;;;;;;25.48;100.00;100214.31;7371090;19;20486;-35
2023/06/22 10:57:17;;;;;;;16.47;9.00;;;;;;;25.29;100.00;100264.16;7395293;19;21125;-35
2023/06/22 10:59:47;;;;;;;40.13;22.53;;;;;;;25.42;100.00;100264.66;7370690;19;20530;-36
2023/06/22 11:02:19;;;;;;;11.00;7.10;;;;;;;25.40;100.00;100266.50;7397000;19;21273;-36
2023/06/22 11:04:49;;;;;;;10.23;4.17;;;;;;;25.53;100.00;100303.13;7371133;19;20434;-36
2023/06/22 11:07:19;;;;;;;59.43;34.23;;;;;;;25.62;100.00;100287.03;7394896;19;20419;-34
2023/06/22 11:09:49;;;;;;;25.43;14.03;;;;;;;25.64;100.00;100240.31;7371684;19;20447;-35
2023/06/22 11:12:19;;;;;;;27.57;14.20;;;;;;;25.72;100.00;100261.22;7394957;19;20411;-34
2023/06/22 11:14:50;;;;;;;49.67;30.50;;;;;;;25.77;100.00;100272.50;7370307;19;20496;-35
2023/06/22 11:17:22;;;;;;;41.93;25.60;;;;;;;25.86;100.00;100227.34;7396182;19;20747;-35
2023/06/22 11:19:52;;;;;;;6.57;4.00;;;;;;;25.81;100.00;100254.78;7371763;19;20459;-36
2023/06/22 11:22:21;;;;;;;12.07;8.07;;;;;;;25.84;100.00;100283.78;7395769;19;20416;-36
2023/06/22 11:24:51;;;;;;;15.00;8.17;;;;;;;26.02;100.00;100460.28;7369917;19;20873;-35
2023/06/22 11:27:20;;;;;;;8.50;4.30;;;;;;;26.08;100.00;100586.09;7396419;19;20416;-35
2023/06/22 11:29:51;;;;;;;5.70;3.60;;;;;;;26.17;100.00;100555.91;7372233;19;20506;-35